createdAt,value
2023-02-02T00:01:20.452Z,99576.03
2023-02-02T00:03:50.716Z,99577.13
2023-02-02T00:06:18.807Z,99580.56
2023-02-02T00:08:46.685Z,99562.19
2023-02-02T00:11:14.570Z,99559.50
2023-02-02T00:13:43.592Z,99559.56
2023-02-02T00:16:42.990Z,99567.59
2023-02-02T00:19:13.531Z,99565.53
2023-02-02T00:21:41.716Z,99567.31
2023-02-02T00:24:11.033Z,99573.38
2023-02-02T00:26:39.791Z,99582.03
2023-02-02T00:29:10.804Z,99579.75
2023-02-02T00:31:38.425Z,99574.28
2023-02-02T00:34:06.012Z,99582.13
2023-02-02T00:36:33.689Z,99583.06
2023-02-02T00:39:01.415Z,99586.56
2023-02-02T00:41:29.030Z,99581.31
2023-02-02T00:44:14.167Z,99575.31
2023-02-02T00:46:43.537Z,99582.19
2023-02-02T00:49:11.374Z,99565.00
2023-02-02T00:51:39.005Z,99588.44
2023-02-02T00:54:07.097Z,99583.00
2023-02-02T00:56:34.714Z,99591.03
2023-02-02T00:59:02.291Z,99578.75
2023-02-02T01:01:30.046Z,99585.06
2023-02-02T01:03:59.120Z,99579.56
2023-02-02T01:06:26.643Z,99559.84
2023-02-02T01:08:54.681Z,99597.72
2023-02-02T01:11:22.441Z,99572.88
2023-02-02T01:13:50.027Z,99552.91
2023-02-02T01:16:17.672Z,99567.47
2023-02-02T01:18:45.386Z,99570.03
2023-02-02T01:21:14.406Z,99577.81
2023-02-02T01:23:41.967Z,99576.03
2023-02-02T01:26:10.994Z,99591.84
2023-02-02T01:28:38.898Z,99590.16
2023-02-02T01:31:08.388Z,99598.78
2023-02-02T01:33:36.191Z,99562.34
2023-02-02T01:36:06.421Z,99593.47
2023-02-02T01:38:35.806Z,99585.81
2023-02-02T01:41:04.454Z,99585.59
2023-02-02T01:43:52.667Z,99567.41
2023-02-02T01:46:21.277Z,99589.94
2023-02-02T01:48:50.706Z,99566.47
2023-02-02T01:51:20.528Z,99597.84
2023-02-02T01:53:50.852Z,99568.47
2023-02-02T01:56:20.610Z,99571.13
2023-02-02T01:58:48.184Z,99572.75
2023-02-02T02:01:16.006Z,99583.88
2023-02-02T02:03:43.796Z,99599.50
2023-02-02T02:06:14.358Z,99587.31
2023-02-02T02:08:47.225Z,99602.22
2023-02-02T02:11:16.437Z,99573.63
2023-02-02T02:14:01.581Z,99606.41
2023-02-02T02:16:37.964Z,99590.81
2023-02-02T02:19:14.956Z,99567.81
2023-02-02T02:22:12.876Z,99590.06
2023-02-02T02:25:42.462Z,99601.53
2023-02-02T02:28:27.121Z,99599.53
2023-02-02T02:31:33.211Z,99593.19
2023-02-02T02:34:05.527Z,99599.56
2023-02-02T02:36:40.656Z,99603.84
2023-02-02T02:39:13.904Z,99601.22
2023-02-02T02:41:45.088Z,99595.97
2023-02-02T02:44:15.508Z,99604.59
2023-02-02T02:46:43.415Z,99593.34
2023-02-02T02:49:14.024Z,99599.63
2023-02-02T02:51:47.571Z,99587.25
2023-02-02T02:54:17.244Z,99588.13
2023-02-02T02:56:59.643Z,99597.69
2023-02-02T02:59:35.592Z,99607.13
2023-02-02T03:02:16.896Z,99604.63
2023-02-02T03:04:52.772Z,99606.31
2023-02-02T03:07:25.199Z,99606.19
2023-02-02T03:09:53.421Z,99608.03
2023-02-02T03:12:20.986Z,99603.75
2023-02-02T03:14:48.631Z,99600.13
2023-02-02T03:17:16.217Z,99606.25
2023-02-02T03:19:43.765Z,99592.38
2023-02-02T03:22:12.745Z,99584.69
2023-02-02T03:24:40.455Z,99590.75
2023-02-02T03:27:08.063Z,99589.97
2023-02-02T03:29:35.692Z,99587.19
2023-02-02T03:32:03.234Z,99593.38
2023-02-02T03:34:30.946Z,99598.72
2023-02-02T03:36:58.533Z,99591.72
2023-02-02T03:39:27.453Z,99596.97
2023-02-02T03:41:55.106Z,99596.97
2023-02-02T03:44:22.792Z,99595.28
2023-02-02T03:46:50.386Z,99597.25
2023-02-02T03:49:18.018Z,99603.03
2023-02-02T03:51:45.671Z,99596.94
2023-02-02T03:54:13.555Z,99598.72
2023-02-02T03:56:42.469Z,99595.16
2023-02-02T03:59:10.011Z,99593.44
2023-02-02T04:01:37.698Z,99596.97
2023-02-02T04:04:05.325Z,99596.97
2023-02-02T04:06:32.999Z,99593.25
2023-02-02T04:09:00.647Z,99596.16
2023-02-02T04:11:28.174Z,99596.13
2023-02-02T04:13:57.116Z,99604.81
2023-02-02T04:16:24.768Z,99600.25
2023-02-02T04:18:52.349Z,99605.56
2023-02-02T04:21:19.962Z,99607.41
2023-02-02T04:23:47.493Z,99614.47
2023-02-02T04:26:15.208Z,99609.28
2023-02-02T04:28:42.822Z,99611.06
2023-02-02T04:31:12.003Z,99602.31
2023-02-02T04:33:39.707Z,99619.44
2023-02-02T04:36:07.937Z,99623.66
2023-02-02T04:38:35.706Z,99622.00
2023-02-02T04:41:07.470Z,99629.00
2023-02-02T04:43:35.138Z,99629.84
2023-02-02T04:46:03.116Z,99636.91
2023-02-02T04:48:32.332Z,99630.72
2023-02-02T04:51:01.269Z,99626.41
2023-02-02T04:53:29.375Z,99636.91
2023-02-02T04:55:57.221Z,99641.97
2023-02-02T04:58:24.981Z,99642.88
2023-02-02T05:00:52.688Z,99637.75
2023-02-02T05:03:20.284Z,99647.50
2023-02-02T05:05:49.371Z,99643.13
2023-02-02T05:08:16.944Z,99643.03
2023-02-02T05:10:44.917Z,99645.47
2023-02-02T05:13:12.530Z,99645.69
2023-02-02T05:15:40.093Z,99642.91
2023-02-02T05:18:07.807Z,99647.44
2023-02-02T05:20:35.384Z,99653.38
2023-02-02T05:23:04.269Z,99658.81
2023-02-02T05:25:31.885Z,99662.22
2023-02-02T05:27:59.792Z,99668.63
2023-02-02T05:30:27.590Z,99667.56
2023-02-02T05:32:55.169Z,99665.72
2023-02-02T05:35:23.060Z,99663.06
2023-02-02T05:37:53.441Z,99679.84
2023-02-02T05:40:23.042Z,99684.19
2023-02-02T05:42:50.694Z,99673.75
2023-02-02T05:45:21.340Z,99674.53
2023-02-02T05:47:49.019Z,99687.59
2023-02-02T05:50:17.365Z,99685.75
2023-02-02T05:52:46.172Z,99684.00
2023-02-02T05:55:16.371Z,99680.53
2023-02-02T05:57:45.457Z,99686.66
2023-02-02T06:00:14.046Z,99683.38
2023-02-02T06:02:41.645Z,99690.16
2023-02-02T06:05:09.741Z,99684.22
2023-02-02T06:07:37.403Z,99683.19
2023-02-02T06:10:05.725Z,99688.31
2023-02-02T06:12:33.330Z,99687.56
2023-02-02T06:15:02.314Z,99690.31
2023-02-02T06:17:29.860Z,99683.28
2023-02-02T06:19:57.527Z,99680.63
2023-02-02T06:22:25.199Z,99686.88
2023-02-02T06:24:53.321Z,99686.16
2023-02-02T06:27:21.223Z,99694.09
2023-02-02T06:29:48.995Z,99706.00
2023-02-02T06:32:17.947Z,99699.00
2023-02-02T06:34:45.531Z,99694.84
2023-02-02T06:37:13.068Z,99685.38
2023-02-02T06:39:40.585Z,99699.97
2023-02-02T06:42:20.348Z,99691.22
2023-02-02T06:44:48.728Z,99687.66
2023-02-02T06:47:17.673Z,99678.94
2023-02-02T06:49:45.192Z,99682.50
2023-02-02T06:52:12.827Z,99685.09
2023-02-02T06:54:40.404Z,99689.19
2023-02-02T06:57:09.324Z,99690.13
2023-02-02T06:59:36.967Z,99685.75
2023-02-02T07:02:04.755Z,99685.88
2023-02-02T07:04:33.756Z,99681.28
2023-02-02T07:07:01.342Z,99688.28
2023-02-02T07:09:28.903Z,99695.22
2023-02-02T07:11:56.893Z,99706.47
2023-02-02T07:14:25.689Z,99710.06
2023-02-02T07:16:53.258Z,99709.06
2023-02-02T07:19:20.870Z,99694.28
2023-02-02T07:21:49.932Z,99681.25
2023-02-02T07:24:17.701Z,99698.69
2023-02-02T07:26:45.446Z,99688.25
2023-02-02T07:29:13.997Z,99705.38
2023-02-02T07:31:41.800Z,99689.19
2023-02-02T07:34:09.402Z,99709.22
2023-02-02T07:36:37.103Z,99707.97
2023-02-02T07:39:07.610Z,99722.72
2023-02-02T07:41:36.412Z,99703.69
2023-02-02T07:44:04.176Z,99734.09
2023-02-02T07:46:32.171Z,99716.50
2023-02-02T07:48:59.818Z,99716.97
2023-02-02T07:51:27.612Z,99730.38
2023-02-02T07:53:58.384Z,99717.44
2023-02-02T07:56:28.479Z,99707.25
2023-02-02T07:58:57.408Z,99703.78
2023-02-02T08:01:26.303Z,99692.50
2023-02-02T08:03:54.535Z,99684.44
2023-02-02T08:06:23.597Z,99689.81
2023-02-02T08:08:53.137Z,99680.38
2023-02-02T08:11:22.859Z,99728.97
2023-02-02T08:13:52.946Z,99709.81
2023-02-02T08:16:21.216Z,99730.78
2023-02-02T08:18:49.117Z,99737.63
2023-02-02T08:21:17.293Z,99722.84
2023-02-02T08:23:45.624Z,99733.06
2023-02-02T08:26:15.354Z,99715.44
2023-02-02T08:28:44.290Z,99689.72
2023-02-02T08:31:15.327Z,99696.38
2023-02-02T08:33:43.543Z,99707.59
2023-02-02T08:36:13.004Z,99710.25
2023-02-02T08:38:40.619Z,99731.16
2023-02-02T08:41:09.255Z,99732.72
2023-02-02T08:43:37.274Z,99705.00
2023-02-02T08:46:05.939Z,99737.88
2023-02-02T08:48:36.249Z,99719.66
2023-02-02T08:51:05.211Z,99718.91
2023-02-02T08:53:33.542Z,99751.97
2023-02-02T08:56:02.212Z,99734.59
2023-02-02T08:58:30.049Z,99726.44
2023-02-02T09:01:05.867Z,99728.22
2023-02-02T09:03:35.425Z,99713.53
2023-02-02T09:06:07.072Z,99709.00
2023-02-02T09:08:34.797Z,99716.00
2023-02-02T09:11:07.064Z,99734.19
2023-02-02T09:13:34.784Z,99731.75
2023-02-02T09:16:02.937Z,99712.72
2023-02-02T09:18:30.997Z,99722.91
2023-02-02T09:21:02.409Z,99717.75
2023-02-02T09:23:31.125Z,99736.75
2023-02-02T09:25:59.050Z,99746.31
2023-02-02T09:28:26.684Z,99747.28
2023-02-02T09:30:54.310Z,99762.81
2023-02-02T09:33:21.944Z,99748.81
2023-02-02T09:35:49.634Z,99738.38
2023-02-02T09:38:18.552Z,99764.09
2023-02-02T09:40:46.167Z,99753.88
2023-02-02T09:43:28.166Z,99753.09
2023-02-02T09:46:00.862Z,99777.31
2023-02-02T09:48:31.099Z,99784.31
2023-02-02T09:51:01.123Z,99759.25
2023-02-02T09:53:53.179Z,99780.94
2023-02-02T09:56:25.448Z,99766.25
2023-02-02T09:58:54.886Z,99781.81
2023-02-02T10:01:24.318Z,99787.53
2023-02-02T10:04:01.200Z,99793.13
2023-02-02T10:06:35.566Z,99771.44
2023-02-02T10:09:14.350Z,99803.41
2023-02-02T10:11:46.460Z,99779.25
2023-02-02T10:14:19.554Z,99794.81
2023-02-02T10:16:47.958Z,99792.94
2023-02-02T10:19:15.978Z,99806.53
2023-02-02T10:21:48.113Z,99795.44
2023-02-02T10:24:19.449Z,99801.63
2023-02-02T10:26:49.092Z,99826.91
2023-02-02T10:29:18.717Z,99792.03
2023-02-02T10:31:54.373Z,99798.09
2023-02-02T10:34:25.153Z,99837.81
2023-02-02T10:37:07.514Z,99831.63
2023-02-02T10:39:45.883Z,99800.72
2023-02-02T10:42:20.741Z,99816.38
2023-02-02T10:44:51.687Z,99790.19
2023-02-02T10:47:25.353Z,99824.34
2023-02-02T10:49:59.505Z,99793.44
2023-02-02T10:52:31.253Z,99830.53
2023-02-02T10:55:04.441Z,99806.97
2023-02-02T10:57:53.554Z,99828.47
2023-02-02T11:00:24.124Z,99812.13
2023-02-02T11:02:52.626Z,99826.44
2023-02-02T11:05:40.259Z,99835.94
2023-02-02T11:08:15.836Z,99812.88
2023-02-02T11:10:46.111Z,99806.84
2023-02-02T11:13:19.921Z,99811.09
2023-02-02T11:15:47.567Z,99809.47
2023-02-02T11:18:27.273Z,99835.22
2023-02-02T11:20:55.222Z,99798.72
2023-02-02T11:23:23.065Z,99830.47
2023-02-02T11:26:00.800Z,99815.44
2023-02-02T11:28:30.941Z,99817.22
2023-02-02T11:30:59.016Z,99818.97
2023-02-02T11:33:31.846Z,99840.56
2023-02-02T11:36:00.991Z,99809.75
2023-02-02T11:38:29.517Z,99825.19
2023-02-02T11:41:02.343Z,99822.84
2023-02-02T11:43:31.529Z,99851.41
2023-02-02T11:46:02.989Z,99839.34
2023-02-02T11:48:34.239Z,99843.44
2023-02-02T11:51:02.677Z,99819.25
2023-02-02T11:53:32.237Z,99818.03
2023-02-02T11:56:03.674Z,99819.47
2023-02-02T11:58:44.483Z,99845.94
2023-02-02T12:01:24.490Z,99842.88
2023-02-02T12:03:54.023Z,99842.16
2023-02-02T12:06:22.988Z,99849.13
2023-02-02T12:08:50.974Z,99845.19
2023-02-02T12:11:30.374Z,99835.88
2023-02-02T12:14:06.908Z,99827.94
2023-02-02T12:16:43.566Z,99834.66
2023-02-02T12:19:28.480Z,99835.72
2023-02-02T12:22:02.369Z,99826.03
2023-02-02T12:24:32.679Z,99820.63
2023-02-02T12:27:12.423Z,99824.13
2023-02-02T12:29:49.498Z,99826.84
2023-02-02T12:32:27.532Z,99832.75
2023-02-02T12:35:05.162Z,99845.41
2023-02-02T12:37:43.868Z,99828.88
2023-02-02T12:40:31.133Z,99820.94
2023-02-02T12:43:11.784Z,99825.47
2023-02-02T12:45:47.728Z,99819.13
2023-02-02T12:48:24.567Z,99824.25
2023-02-02T12:51:01.750Z,99807.75
2023-02-02T12:53:39.538Z,99833.25
2023-02-02T12:56:18.453Z,99829.41
2023-02-02T12:58:54.405Z,99817.97
2023-02-02T13:01:34.691Z,99819.59
2023-02-02T13:04:12.360Z,99801.88
2023-02-02T13:07:07.626Z,99838.28
2023-02-02T13:09:41.235Z,99819.66
2023-02-02T13:12:10.700Z,99809.34
2023-02-02T13:14:42.595Z,99827.31
2023-02-02T13:17:14.143Z,99831.50
2023-02-02T13:19:43.511Z,99822.22
2023-02-02T13:22:16.507Z,99828.53
2023-02-02T13:24:46.918Z,99851.19
2023-02-02T13:27:17.121Z,99831.56
2023-02-02T13:29:49.731Z,99826.84
2023-02-02T13:32:22.440Z,99831.44
2023-02-02T13:34:52.343Z,99860.69
2023-02-02T13:37:26.310Z,99858.25
2023-02-02T13:39:57.373Z,99848.66
2023-02-02T13:42:33.106Z,99829.25
2023-02-02T13:45:04.736Z,99865.03
2023-02-02T13:47:38.881Z,99829.72
2023-02-02T13:50:12.154Z,99847.31
2023-02-02T13:52:51.323Z,99840.00
2023-02-02T13:55:45.702Z,99846.16
2023-02-02T13:58:41.171Z,99878.28
2023-02-02T14:01:12.157Z,99855.41
2023-02-02T14:03:41.418Z,99861.28
2023-02-02T14:06:12.379Z,99852.69
2023-02-02T14:08:46.550Z,99883.09
2023-02-02T14:11:19.935Z,99889.06
2023-02-02T14:14:06.639Z,99882.84
2023-02-02T14:16:48.147Z,99883.91
2023-02-02T14:19:17.237Z,99887.41
2023-02-02T14:22:06.246Z,99899.50
2023-02-02T14:24:45.664Z,99887.22
2023-02-02T14:27:58.064Z,99880.31
2023-02-02T14:30:32.689Z,99884.00
2023-02-02T14:33:23.276Z,99891.66
2023-02-02T14:36:01.651Z,99883.84
2023-02-02T14:38:45.941Z,99898.13
2023-02-02T14:41:37.420Z,99891.19
2023-02-02T14:44:05.021Z,99900.22
2023-02-02T14:46:35.584Z,99905.41
2023-02-02T14:49:16.884Z,99907.31
2023-02-02T14:52:00.267Z,99914.59
2023-02-02T14:54:37.440Z,99917.38
2023-02-02T14:57:22.398Z,99929.75
2023-02-02T14:59:50.889Z,99925.25
2023-02-02T15:02:21.850Z,99934.13
2023-02-02T15:04:51.184Z,99937.84
2023-02-02T15:07:47.291Z,99945.59
2023-02-02T15:10:57.487Z,99917.34
2023-02-02T15:13:26.038Z,99919.56
2023-02-02T15:16:08.350Z,99919.56
2023-02-02T15:18:42.140Z,99913.47
2023-02-02T15:21:15.506Z,99949.97
2023-02-02T15:23:44.963Z,99913.72
2023-02-02T15:26:16.564Z,99944.78
2023-02-02T15:28:48.338Z,99919.06
2023-02-02T15:31:20.474Z,99915.38
2023-02-02T15:33:50.612Z,99922.44
2023-02-02T15:36:23.780Z,99912.13
2023-02-02T15:38:54.198Z,99953.88
2023-02-02T15:41:24.932Z,99929.09
2023-02-02T15:43:53.286Z,99950.88
2023-02-02T15:46:24.452Z,99978.59
2023-02-02T15:49:32.718Z,99975.91
2023-02-02T15:52:10.109Z,99983.00
2023-02-02T15:54:38.982Z,99996.06
2023-02-02T15:57:23.740Z,100011.03
2023-02-02T15:59:51.335Z,100005.91
2023-02-02T16:02:24.096Z,99994.59
2023-02-02T16:04:51.725Z,100014.72
2023-02-02T16:07:23.071Z,99989.50
2023-02-02T16:09:50.942Z,100000.25
2023-02-02T16:12:20.429Z,100013.13
2023-02-02T16:14:49.609Z,100012.06
2023-02-02T16:17:21.737Z,100008.44
2023-02-02T16:19:50.557Z,100001.50
2023-02-02T16:22:23.870Z,100005.16
2023-02-02T16:24:54.817Z,99991.59
2023-02-02T16:27:24.628Z,99997.69
2023-02-02T16:29:52.306Z,100009.75
2023-02-02T16:32:38.875Z,100012.50
2023-02-02T16:35:25.853Z,99989.19
2023-02-02T16:38:12.932Z,100011.72
2023-02-02T16:40:40.965Z,100021.28
2023-02-02T16:43:17.927Z,100028.38
2023-02-02T16:45:47.940Z,100030.00
2023-02-02T16:48:30.723Z,99995.81
2023-02-02T16:51:23.921Z,100006.00
2023-02-02T16:53:59.149Z,100033.84
2023-02-02T16:56:31.228Z,100014.72
2023-02-02T16:59:00.505Z,100041.03
2023-02-02T17:01:37.622Z,100009.72
2023-02-02T17:04:06.763Z,100013.19
2023-02-02T17:06:50.448Z,100048.97
2023-02-02T17:09:36.405Z,100044.59
2023-02-02T17:12:14.270Z,100018.69
2023-02-02T17:14:53.100Z,100041.00
2023-02-02T17:17:21.184Z,100043.78
2023-02-02T17:19:48.826Z,100045.38
2023-02-02T17:22:18.960Z,100033.47
2023-02-02T17:24:49.761Z,100032.47
2023-02-02T17:27:19.568Z,100067.44
2023-02-02T17:29:47.391Z,100077.06
2023-02-02T17:32:15.006Z,100076.97
2023-02-02T17:34:42.695Z,100074.38
2023-02-02T17:37:10.751Z,100073.56
2023-02-02T17:39:38.395Z,100090.22
2023-02-02T17:42:07.949Z,100087.69
2023-02-02T17:44:35.708Z,100089.31
2023-02-02T17:47:03.232Z,100086.75
2023-02-02T17:49:30.818Z,100072.97
2023-02-02T17:51:58.479Z,100091.19
2023-02-02T17:54:26.357Z,100085.22
2023-02-02T17:56:53.988Z,100093.09
2023-02-02T17:59:22.991Z,100100.06
2023-02-02T18:01:51.125Z,100096.38
2023-02-02T18:04:18.995Z,100070.69
2023-02-02T18:06:46.679Z,100107.69
2023-02-02T18:09:14.378Z,100112.16
2023-02-02T18:11:42.668Z,100074.16
2023-02-02T18:14:10.721Z,100107.09
2023-02-02T18:16:39.754Z,100116.72
2023-02-02T18:19:07.351Z,100126.38
2023-02-02T18:21:34.948Z,100129.06
2023-02-02T18:24:02.590Z,100116.09
2023-02-02T18:26:31.461Z,100110.88
2023-02-02T18:28:59.968Z,100120.34
2023-02-02T18:31:27.911Z,100124.59
2023-02-02T18:33:57.095Z,100113.34
2023-02-02T18:36:24.725Z,100087.41
2023-02-02T18:38:53.781Z,100085.63
2023-02-02T18:41:22.094Z,100115.94
2023-02-02T18:43:52.648Z,100111.63
2023-02-02T18:46:20.397Z,100119.50
2023-02-02T18:48:48.156Z,100128.19
2023-02-02T18:51:18.908Z,100132.69
2023-02-02T18:53:47.501Z,100124.00
2023-02-02T18:56:15.817Z,100112.69
2023-02-02T18:58:43.414Z,100121.25
2023-02-02T19:01:12.238Z,100122.91
2023-02-02T19:03:40.854Z,100118.81
2023-02-02T19:06:27.848Z,100129.16
2023-02-02T19:08:56.759Z,100130.97
2023-02-02T19:11:26.610Z,100110.03
2023-02-02T19:13:54.643Z,100089.13
2023-02-02T19:16:25.390Z,100110.06
2023-02-02T19:18:56.818Z,100111.81
2023-02-02T19:21:24.594Z,100089.34
2023-02-02T19:23:52.171Z,100093.56
2023-02-02T19:26:24.613Z,100082.28
2023-02-02T19:28:52.770Z,100107.41
2023-02-02T19:31:21.024Z,100109.09
2023-02-02T19:33:50.271Z,100106.66
2023-02-02T19:36:20.541Z,100110.84
2023-02-02T19:38:49.456Z,100109.44
2023-02-02T19:41:20.241Z,100078.16
2023-02-02T19:43:50.132Z,100085.06
2023-02-02T19:46:22.205Z,100085.16
2023-02-02T19:48:52.499Z,100087.78
2023-02-02T19:51:38.600Z,100098.94
2023-02-02T19:54:12.924Z,100102.44
2023-02-02T19:56:40.563Z,100091.97
2023-02-02T19:59:14.372Z,100107.81
2023-02-02T20:01:45.804Z,100090.53
2023-02-02T20:04:14.483Z,100088.69
2023-02-02T20:06:56.688Z,100121.66
2023-02-02T20:09:28.584Z,100083.53
2023-02-02T20:11:56.687Z,100089.69
2023-02-02T20:14:32.786Z,100106.97
2023-02-02T20:17:03.477Z,100133.97
2023-02-02T20:19:35.217Z,100134.75
2023-02-02T20:22:03.456Z,100116.59
2023-02-02T20:24:36.481Z,100139.09
2023-02-02T20:27:17.233Z,100137.31
2023-02-02T20:29:47.726Z,100135.69
2023-02-02T20:32:21.007Z,100122.69
2023-02-02T20:34:49.711Z,100130.34
2023-02-02T20:37:23.229Z,100103.56
2023-02-02T20:39:54.189Z,100099.03
2023-02-02T20:42:22.013Z,100110.47
2023-02-02T20:44:51.029Z,100107.72
2023-02-02T20:47:18.794Z,100107.78
2023-02-02T20:49:46.602Z,100140.88
2023-02-02T20:52:21.812Z,100111.34
2023-02-02T20:54:49.678Z,100135.47
2023-02-02T20:57:27.299Z,100127.00
2023-02-02T20:59:57.728Z,100146.16
2023-02-02T21:02:26.470Z,100152.19
2023-02-02T21:04:55.005Z,100143.50
2023-02-02T21:07:23.711Z,100151.31
2023-02-02T21:09:51.862Z,100151.28
2023-02-02T21:12:22.227Z,100128.91
2023-02-02T21:14:49.804Z,100128.91
2023-02-02T21:17:18.839Z,100155.78
2023-02-02T21:19:46.606Z,100134.09
2023-02-02T21:22:14.466Z,100134.03
2023-02-02T21:24:42.610Z,100167.09
2023-02-02T21:27:10.505Z,100142.91
2023-02-02T21:29:38.480Z,100168.91
2023-02-02T21:32:06.618Z,100162.78
2023-02-02T21:34:37.654Z,100174.09
2023-02-02T21:37:10.768Z,100166.31
2023-02-02T21:39:38.674Z,100148.91
2023-02-02T21:42:13.040Z,100149.00
2023-02-02T21:44:42.218Z,100137.75
2023-02-02T21:47:30.279Z,100155.03
2023-02-02T21:50:05.444Z,100159.38
2023-02-02T21:52:34.775Z,100162.97
2023-02-02T21:55:22.823Z,100155.91
2023-02-02T21:57:50.564Z,100145.59
2023-02-02T22:00:24.834Z,100142.81
2023-02-02T22:02:53.939Z,100148.22
2023-02-02T22:05:25.659Z,100146.41
2023-02-02T22:07:54.315Z,100152.47
2023-02-02T22:10:37.119Z,100148.28
2023-02-02T22:13:15.516Z,100140.38
2023-02-02T22:15:45.883Z,100138.78
2023-02-02T22:18:14.912Z,100136.16
2023-02-02T22:20:47.027Z,100127.28
2023-02-02T22:23:16.522Z,100136.88
2023-02-02T22:25:45.581Z,100144.81
2023-02-02T22:28:20.091Z,100145.75
2023-02-02T22:30:47.913Z,100134.44
2023-02-02T22:33:16.202Z,100143.06
2023-02-02T22:35:46.100Z,100146.56
2023-02-02T22:38:17.819Z,100143.97
2023-02-02T22:40:45.528Z,100157.00
2023-02-02T22:43:16.254Z,100162.31
2023-02-02T22:45:44.506Z,100165.88
2023-02-02T22:48:12.445Z,100167.53
2023-02-02T22:50:40.376Z,100165.78
2023-02-02T22:53:09.564Z,100162.28
2023-02-02T22:55:37.627Z,100169.19
2023-02-02T22:58:05.247Z,100166.78
2023-02-02T23:00:33.581Z,100170.16
2023-02-02T23:03:01.564Z,100171.00
2023-02-02T23:05:29.357Z,100174.53
2023-02-02T23:07:57.202Z,100174.50
2023-02-02T23:10:29.518Z,100179.75
2023-02-02T23:12:58.559Z,100173.69
2023-02-02T23:15:26.596Z,100166.81
2023-02-02T23:17:54.722Z,100178.84
2023-02-02T23:20:22.653Z,100176.19
2023-02-02T23:22:50.227Z,100182.38
2023-02-02T23:25:18.660Z,100175.34
2023-02-02T23:27:47.723Z,100181.41
2023-02-02T23:30:16.070Z,100180.50
2023-02-02T23:32:43.649Z,100162.25
2023-02-02T23:35:11.349Z,100153.53
2023-02-02T23:37:39.439Z,100170.00
2023-02-02T23:40:08.231Z,100174.63
2023-02-02T23:42:35.956Z,100181.56
2023-02-02T23:45:05.619Z,100196.31
2023-02-02T23:47:33.763Z,100191.16
2023-02-02T23:50:04.334Z,100185.09
2023-02-02T23:52:32.521Z,100190.25
2023-02-02T23:55:00.964Z,100200.69
2023-02-02T23:57:28.727Z,100187.59
2023-02-02T23:59:56.371Z,100200.50
